sensor_id;sensor_type;location;lat;lon;timestamp;P1;durP1;ratioP1;P2;durP2;ratioP2
27706;SDS011;36332;51.384;0.040;2023-07-31T00:01:56;24.77;;;7.07;;
27706;SDS011;36332;51.384;0.040;2023-07-31T00:04:24;29.10;;;7.68;;
27706;SDS011;36332;51.384;0.040;2023-07-31T00:06:52;25.95;;;6.55;;
27706;SDS011;36332;51.384;0.040;2023-07-31T00:09:19;26.55;;;6.82;;
27706;SDS011;36332;51.384;0.040;2023-07-31T00:11:47;21.15;;;6.95;;
27706;SDS011;36332;51.384;0.040;2023-07-31T00:14:15;21.25;;;5.63;;
27706;SDS011;36332;51.384;0.040;2023-07-31T00:16:43;20.38;;;7.13;;
27706;SDS011;36332;51.384;0.040;2023-07-31T00:19:11;19.08;;;6.10;;
27706;SDS011;36332;51.384;0.040;2023-07-31T00:21:39;13.75;;;5.88;;
27706;SDS011;36332;51.384;0.040;2023-07-31T00:24:07;15.65;;;4.72;;
27706;SDS011;36332;51.384;0.040;2023-07-31T00:26:35;13.43;;;4.85;;
27706;SDS011;36332;51.384;0.040;2023-07-31T00:29:04;10.25;;;4.28;;
27706;SDS011;36332;51.384;0.040;2023-07-31T00:31:32;10.05;;;3.58;;
27706;SDS011;36332;51.384;0.040;2023-07-31T00:34:00;10.57;;;4.28;;
27706;SDS011;36332;51.384;0.040;2023-07-31T00:36:28;9.55;;;2.83;;
27706;SDS011;36332;51.384;0.040;2023-07-31T00:38:56;8.43;;;3.13;;
27706;SDS011;36332;51.384;0.040;2023-07-31T00:41:26;12.75;;;3.30;;
27706;SDS011;36332;51.384;0.040;2023-07-31T00:43:54;8.25;;;3.40;;
27706;SDS011;36332;51.384;0.040;2023-07-31T00:46:21;10.70;;;3.20;;
27706;SDS011;36332;51.384;0.040;2023-07-31T00:48:49;3.53;;;2.75;;
27706;SDS011;36332;51.384;0.040;2023-07-31T00:51:17;10.18;;;3.53;;
27706;SDS011;36332;51.384;0.040;2023-07-31T00:53:45;10.63;;;3.08;;
27706;SDS011;36332;51.384;0.040;2023-07-31T00:56:14;10.55;;;3.05;;
27706;SDS011;36332;51.384;0.040;2023-07-31T00:58:42;8.57;;;2.25;;
27706;SDS011;36332;51.384;0.040;2023-07-31T01:01:10;6.80;;;1.92;;
27706;SDS011;36332;51.384;0.040;2023-07-31T01:03:38;4.85;;;2.00;;
27706;SDS011;36332;51.384;0.040;2023-07-31T01:09:11;7.05;;;2.08;;
27706;SDS011;36332;51.384;0.040;2023-07-31T01:11:53;4.25;;;1.65;;
27706;SDS011;36332;51.384;0.040;2023-07-31T01:14:24;5.38;;;1.60;;
27706;SDS011;36332;51.384;0.040;2023-07-31T01:16:52;4.40;;;1.88;;
27706;SDS011;36332;51.384;0.040;2023-07-31T01:19:24;2.20;;;1.50;;
27706;SDS011;36332;51.384;0.040;2023-07-31T01:27:59;2.63;;;1.02;;
27706;SDS011;36332;51.384;0.040;2023-07-31T01:30:34;3.15;;;1.67;;
27706;SDS011;36332;51.384;0.040;2023-07-31T01:33:08;4.95;;;1.77;;
27706;SDS011;36332;51.384;0.040;2023-07-31T01:35:37;3.20;;;1.42;;
27706;SDS011;36332;51.384;0.040;2023-07-31T01:38:05;5.78;;;1.40;;
27706;SDS011;36332;51.384;0.040;2023-07-31T01:40:33;4.10;;;1.27;;
27706;SDS011;36332;51.384;0.040;2023-07-31T01:43:02;3.70;;;1.33;;
27706;SDS011;36332;51.384;0.040;2023-07-31T01:45:30;1.95;;;1.17;;
27706;SDS011;36332;51.384;0.040;2023-07-31T01:47:58;1.77;;;1.38;;
27706;SDS011;36332;51.384;0.040;2023-07-31T01:50:26;5.75;;;1.58;;
27706;SDS011;36332;51.384;0.040;2023-07-31T01:52:54;2.38;;;1.48;;
27706;SDS011;36332;51.384;0.040;2023-07-31T01:55:24;2.42;;;1.60;;
27706;SDS011;36332;51.384;0.040;2023-07-31T01:57:52;3.80;;;1.40;;
27706;SDS011;36332;51.384;0.040;2023-07-31T02:00:21;4.10;;;1.50;;
27706;SDS011;36332;51.384;0.040;2023-07-31T02:02:49;6.22;;;2.10;;
27706;SDS011;36332;51.384;0.040;2023-07-31T02:05:19;2.88;;;1.95;;
27706;SDS011;36332;51.384;0.040;2023-07-31T02:07:47;5.50;;;1.95;;
27706;SDS011;36332;51.384;0.040;2023-07-31T02:10:15;4.38;;;1.83;;
27706;SDS011;36332;51.384;0.040;2023-07-31T02:12:43;4.28;;;1.88;;
27706;SDS011;36332;51.384;0.040;2023-07-31T02:15:11;4.50;;;1.85;;
27706;SDS011;36332;51.384;0.040;2023-07-31T02:17:40;4.10;;;2.08;;
27706;SDS011;36332;51.384;0.040;2023-07-31T02:20:08;8.20;;;2.60;;
27706;SDS011;36332;51.384;0.040;2023-07-31T02:22:36;7.72;;;2.20;;
27706;SDS011;36332;51.384;0.040;2023-07-31T02:25:04;23.38;;;2.75;;
27706;SDS011;36332;51.384;0.040;2023-07-31T02:27:32;5.88;;;2.65;;
27706;SDS011;36332;51.384;0.040;2023-07-31T02:30:00;8.32;;;2.63;;
27706;SDS011;36332;51.384;0.040;2023-07-31T02:32:28;3.85;;;2.10;;
27706;SDS011;36332;51.384;0.040;2023-07-31T02:34:57;5.25;;;2.25;;
27706;SDS011;36332;51.384;0.040;2023-07-31T02:37:25;3.95;;;1.80;;
27706;SDS011;36332;51.384;0.040;2023-07-31T02:39:55;6.00;;;2.78;;
27706;SDS011;36332;51.384;0.040;2023-07-31T02:42:23;2.55;;;1.63;;
27706;SDS011;36332;51.384;0.040;2023-07-31T02:44:51;6.22;;;2.47;;
27706;SDS011;36332;51.384;0.040;2023-07-31T02:47:22;4.30;;;1.60;;
27706;SDS011;36332;51.384;0.040;2023-07-31T02:49:51;4.90;;;1.85;;
27706;SDS011;36332;51.384;0.040;2023-07-31T02:52:19;2.88;;;1.80;;
27706;SDS011;36332;51.384;0.040;2023-07-31T02:54:47;7.50;;;2.17;;
27706;SDS011;36332;51.384;0.040;2023-07-31T02:57:15;6.05;;;3.10;;
27706;SDS011;36332;51.384;0.040;2023-07-31T02:59:43;4.18;;;2.10;;
27706;SDS011;36332;51.384;0.040;2023-07-31T03:02:11;5.07;;;2.58;;
27706;SDS011;36332;51.384;0.040;2023-07-31T03:04:40;4.97;;;1.83;;
27706;SDS011;36332;51.384;0.040;2023-07-31T03:07:07;5.50;;;2.20;;
27706;SDS011;36332;51.384;0.040;2023-07-31T03:09:35;3.92;;;2.10;;
27706;SDS011;36332;51.384;0.040;2023-07-31T03:12:03;4.88;;;2.08;;
27706;SDS011;36332;51.384;0.040;2023-07-31T03:14:32;5.68;;;2.47;;
27706;SDS011;36332;51.384;0.040;2023-07-31T03:17:00;5.15;;;2.78;;
27706;SDS011;36332;51.384;0.040;2023-07-31T03:19:30;5.28;;;2.92;;
27706;SDS011;36332;51.384;0.040;2023-07-31T03:21:59;6.40;;;2.00;;
27706;SDS011;36332;51.384;0.040;2023-07-31T03:24:28;3.10;;;1.65;;
27706;SDS011;36332;51.384;0.040;2023-07-31T03:26:56;3.78;;;1.63;;
27706;SDS011;36332;51.384;0.040;2023-07-31T03:29:24;4.72;;;1.75;;
27706;SDS011;36332;51.384;0.040;2023-07-31T03:31:52;3.97;;;1.60;;
27706;SDS011;36332;51.384;0.040;2023-07-31T03:34:20;6.03;;;1.65;;
27706;SDS011;36332;51.384;0.040;2023-07-31T03:36:48;6.68;;;1.90;;
27706;SDS011;36332;51.384;0.040;2023-07-31T03:39:16;3.25;;;1.70;;
27706;SDS011;36332;51.384;0.040;2023-07-31T03:41:44;4.60;;;1.90;;
27706;SDS011;36332;51.384;0.040;2023-07-31T03:44:12;5.97;;;1.77;;
27706;SDS011;36332;51.384;0.040;2023-07-31T03:46:39;3.83;;;1.20;;
27706;SDS011;36332;51.384;0.040;2023-07-31T03:49:08;3.22;;;1.85;;
27706;SDS011;36332;51.384;0.040;2023-07-31T03:51:35;6.57;;;1.63;;
27706;SDS011;36332;51.384;0.040;2023-07-31T03:54:03;3.67;;;1.50;;
27706;SDS011;36332;51.384;0.040;2023-07-31T03:56:31;2.35;;;1.63;;
27706;SDS011;36332;51.384;0.040;2023-07-31T03:59:02;2.53;;;1.52;;
27706;SDS011;36332;51.384;0.040;2023-07-31T04:01:30;2.08;;;1.30;;
27706;SDS011;36332;51.384;0.040;2023-07-31T04:03:58;3.75;;;1.67;;
27706;SDS011;36332;51.384;0.040;2023-07-31T04:06:25;4.35;;;1.60;;
27706;SDS011;36332;51.384;0.040;2023-07-31T04:08:53;7.43;;;1.80;;
27706;SDS011;36332;51.384;0.040;2023-07-31T04:11:21;2.42;;;1.27;;
27706;SDS011;36332;51.384;0.040;2023-07-31T04:13:49;6.00;;;2.00;;
27706;SDS011;36332;51.384;0.040;2023-07-31T04:16:17;5.82;;;1.75;;
27706;SDS011;36332;51.384;0.040;2023-07-31T04:18:44;6.28;;;2.03;;
27706;SDS011;36332;51.384;0.040;2023-07-31T04:21:12;7.15;;;1.45;;
27706;SDS011;36332;51.384;0.040;2023-07-31T04:23:40;3.38;;;1.63;;
27706;SDS011;36332;51.384;0.040;2023-07-31T04:26:08;4.22;;;1.55;;
27706;SDS011;36332;51.384;0.040;2023-07-31T04:28:36;2.97;;;1.88;;
27706;SDS011;36332;51.384;0.040;2023-07-31T04:31:03;5.45;;;2.63;;
27706;SDS011;36332;51.384;0.040;2023-07-31T04:33:31;4.72;;;1.92;;
27706;SDS011;36332;51.384;0.040;2023-07-31T04:35:59;3.33;;;1.70;;
27706;SDS011;36332;51.384;0.040;2023-07-31T04:38:27;5.00;;;1.70;;
27706;SDS011;36332;51.384;0.040;2023-07-31T04:40:55;2.92;;;1.90;;
27706;SDS011;36332;51.384;0.040;2023-07-31T04:43:23;7.32;;;2.00;;
27706;SDS011;36332;51.384;0.040;2023-07-31T04:45:51;4.47;;;1.98;;
27706;SDS011;36332;51.384;0.040;2023-07-31T04:48:21;4.57;;;1.67;;
27706;SDS011;36332;51.384;0.040;2023-07-31T04:50:49;3.40;;;1.73;;
27706;SDS011;36332;51.384;0.040;2023-07-31T04:53:17;5.07;;;1.75;;
27706;SDS011;36332;51.384;0.040;2023-07-31T04:55:45;4.35;;;1.88;;
27706;SDS011;36332;51.384;0.040;2023-07-31T04:58:12;1.90;;;1.50;;
27706;SDS011;36332;51.384;0.040;2023-07-31T05:00:40;5.55;;;2.10;;
27706;SDS011;36332;51.384;0.040;2023-07-31T05:03:08;4.63;;;1.70;;
27706;SDS011;36332;51.384;0.040;2023-07-31T05:05:37;5.13;;;1.88;;
27706;SDS011;36332;51.384;0.040;2023-07-31T05:08:05;1.85;;;1.20;;
27706;SDS011;36332;51.384;0.040;2023-07-31T05:10:33;4.32;;;1.67;;
27706;SDS011;36332;51.384;0.040;2023-07-31T05:13:01;6.35;;;2.80;;
27706;SDS011;36332;51.384;0.040;2023-07-31T05:15:29;5.53;;;1.88;;
27706;SDS011;36332;51.384;0.040;2023-07-31T05:17:57;4.97;;;2.17;;
27706;SDS011;36332;51.384;0.040;2023-07-31T05:20:25;3.22;;;2.05;;
27706;SDS011;36332;51.384;0.040;2023-07-31T05:22:52;3.97;;;2.47;;
27706;SDS011;36332;51.384;0.040;2023-07-31T05:25:20;6.50;;;2.20;;
27706;SDS011;36332;51.384;0.040;2023-07-31T05:27:48;4.15;;;2.53;;
27706;SDS011;36332;51.384;0.040;2023-07-31T05:30:16;4.03;;;2.20;;
27706;SDS011;36332;51.384;0.040;2023-07-31T05:32:44;4.80;;;2.33;;
27706;SDS011;36332;51.384;0.040;2023-07-31T05:35:12;2.92;;;1.98;;
27706;SDS011;36332;51.384;0.040;2023-07-31T05:37:39;5.38;;;2.00;;
27706;SDS011;36332;51.384;0.040;2023-07-31T05:40:07;5.07;;;2.40;;
27706;SDS011;36332;51.384;0.040;2023-07-31T05:42:35;9.35;;;2.38;;
27706;SDS011;36332;51.384;0.040;2023-07-31T05:45:06;5.55;;;2.05;;
27706;SDS011;36332;51.384;0.040;2023-07-31T05:47:34;3.88;;;2.05;;
27706;SDS011;36332;51.384;0.040;2023-07-31T05:50:02;4.85;;;2.03;;
27706;SDS011;36332;51.384;0.040;2023-07-31T05:52:30;10.68;;;2.35;;
27706;SDS011;36332;51.384;0.040;2023-07-31T05:54:58;6.00;;;2.22;;
27706;SDS011;36332;51.384;0.040;2023-07-31T05:57:25;3.88;;;2.00;;
27706;SDS011;36332;51.384;0.040;2023-07-31T05:59:53;3.22;;;1.92;;
27706;SDS011;36332;51.384;0.040;2023-07-31T06:02:21;6.28;;;2.50;;
27706;SDS011;36332;51.384;0.040;2023-07-31T06:04:49;6.57;;;1.98;;
27706;SDS011;36332;51.384;0.040;2023-07-31T06:07:17;4.82;;;2.40;;
27706;SDS011;36332;51.384;0.040;2023-07-31T06:09:46;4.93;;;2.10;;
27706;SDS011;36332;51.384;0.040;2023-07-31T06:12:13;2.88;;;2.00;;
27706;SDS011;36332;51.384;0.040;2023-07-31T06:14:45;6.05;;;2.33;;
27706;SDS011;36332;51.384;0.040;2023-07-31T06:17:13;5.57;;;2.05;;
27706;SDS011;36332;51.384;0.040;2023-07-31T06:19:41;5.90;;;2.13;;
27706;SDS011;36332;51.384;0.040;2023-07-31T06:22:08;11.93;;;2.28;;
27706;SDS011;36332;51.384;0.040;2023-07-31T06:24:36;3.38;;;2.15;;
27706;SDS011;36332;51.384;0.040;2023-07-31T06:27:04;7.28;;;2.45;;
27706;SDS011;36332;51.384;0.040;2023-07-31T06:29:32;6.22;;;2.22;;
27706;SDS011;36332;51.384;0.040;2023-07-31T06:32:01;4.90;;;2.30;;
27706;SDS011;36332;51.384;0.040;2023-07-31T06:34:30;6.75;;;1.92;;
27706;SDS011;36332;51.384;0.040;2023-07-31T06:36:57;8.32;;;2.50;;
27706;SDS011;36332;51.384;0.040;2023-07-31T06:39:25;4.15;;;2.10;;
27706;SDS011;36332;51.384;0.040;2023-07-31T06:41:53;8.57;;;2.40;;
27706;SDS011;36332;51.384;0.040;2023-07-31T06:44:20;6.10;;;1.80;;
27706;SDS011;36332;51.384;0.040;2023-07-31T06:46:48;5.93;;;2.20;;
27706;SDS011;36332;51.384;0.040;2023-07-31T06:49:16;4.32;;;1.60;;
27706;SDS011;36332;51.384;0.040;2023-07-31T06:51:44;8.30;;;2.20;;
27706;SDS011;36332;51.384;0.040;2023-07-31T06:54:12;6.82;;;2.03;;
27706;SDS011;36332;51.384;0.040;2023-07-31T06:56:40;3.05;;;2.30;;
27706;SDS011;36332;51.384;0.040;2023-07-31T06:59:08;8.23;;;3.28;;
27706;SDS011;36332;51.384;0.040;2023-07-31T07:01:35;5.40;;;2.00;;
27706;SDS011;36332;51.384;0.040;2023-07-31T07:04:03;9.90;;;2.88;;
27706;SDS011;36332;51.384;0.040;2023-07-31T07:06:32;10.63;;;2.47;;
27706;SDS011;36332;51.384;0.040;2023-07-31T07:09:00;5.28;;;1.85;;
27706;SDS011;36332;51.384;0.040;2023-07-31T07:11:28;5.50;;;2.17;;
27706;SDS011;36332;51.384;0.040;2023-07-31T07:13:55;9.90;;;2.28;;
27706;SDS011;36332;51.384;0.040;2023-07-31T07:16:23;5.13;;;2.03;;
27706;SDS011;36332;51.384;0.040;2023-07-31T07:18:51;2.97;;;2.10;;
27706;SDS011;36332;51.384;0.040;2023-07-31T07:21:30;4.10;;;2.50;;
27706;SDS011;36332;51.384;0.040;2023-07-31T07:23:58;6.07;;;2.40;;
27706;SDS011;36332;51.384;0.040;2023-07-31T07:26:26;6.07;;;2.05;;
27706;SDS011;36332;51.384;0.040;2023-07-31T07:28:54;6.05;;;2.78;;
27706;SDS011;36332;51.384;0.040;2023-07-31T07:31:23;5.82;;;2.55;;
27706;SDS011;36332;51.384;0.040;2023-07-31T07:33:51;4.35;;;2.03;;
27706;SDS011;36332;51.384;0.040;2023-07-31T07:36:19;3.88;;;2.17;;
27706;SDS011;36332;51.384;0.040;2023-07-31T07:38:47;6.68;;;3.13;;
27706;SDS011;36332;51.384;0.040;2023-07-31T07:41:15;10.77;;;2.90;;
27706;SDS011;36332;51.384;0.040;2023-07-31T07:43:43;6.57;;;2.08;;
27706;SDS011;36332;51.384;0.040;2023-07-31T07:46:11;6.15;;;3.15;;
27706;SDS011;36332;51.384;0.040;2023-07-31T07:48:38;5.70;;;2.28;;
27706;SDS011;36332;51.384;0.040;2023-07-31T07:51:06;8.77;;;2.83;;
27706;SDS011;36332;51.384;0.040;2023-07-31T07:53:34;8.02;;;2.30;;
27706;SDS011;36332;51.384;0.040;2023-07-31T07:56:02;13.18;;;2.60;;
27706;SDS011;36332;51.384;0.040;2023-07-31T07:58:30;6.50;;;3.22;;
27706;SDS011;36332;51.384;0.040;2023-07-31T08:00:58;4.43;;;2.35;;
27706;SDS011;36332;51.384;0.040;2023-07-31T08:03:26;8.25;;;2.60;;
27706;SDS011;36332;51.384;0.040;2023-07-31T08:05:58;6.10;;;2.58;;
27706;SDS011;36332;51.384;0.040;2023-07-31T08:08:26;9.35;;;2.63;;
27706;SDS011;36332;51.384;0.040;2023-07-31T08:10:54;5.18;;;3.00;;
27706;SDS011;36332;51.384;0.040;2023-07-31T08:13:22;7.35;;;2.78;;
27706;SDS011;36332;51.384;0.040;2023-07-31T08:15:50;8.32;;;3.63;;
27706;SDS011;36332;51.384;0.040;2023-07-31T08:18:18;6.95;;;3.42;;
27706;SDS011;36332;51.384;0.040;2023-07-31T08:20:45;5.15;;;2.80;;
27706;SDS011;36332;51.384;0.040;2023-07-31T08:23:13;7.55;;;3.15;;
27706;SDS011;36332;51.384;0.040;2023-07-31T08:25:41;9.73;;;3.50;;
27706;SDS011;36332;51.384;0.040;2023-07-31T08:28:09;6.20;;;3.08;;
27706;SDS011;36332;51.384;0.040;2023-07-31T08:30:37;7.22;;;2.65;;
27706;SDS011;36332;51.384;0.040;2023-07-31T08:33:05;5.35;;;2.70;;
27706;SDS011;36332;51.384;0.040;2023-07-31T08:35:33;7.10;;;3.40;;
27706;SDS011;36332;51.384;0.040;2023-07-31T08:38:00;7.85;;;3.13;;
27706;SDS011;36332;51.384;0.040;2023-07-31T08:40:28;4.85;;;2.50;;
27706;SDS011;36332;51.384;0.040;2023-07-31T08:42:56;7.43;;;2.35;;
27706;SDS011;36332;51.384;0.040;2023-07-31T08:45:28;4.20;;;2.80;;
27706;SDS011;36332;51.384;0.040;2023-07-31T08:47:57;4.13;;;2.83;;
27706;SDS011;36332;51.384;0.040;2023-07-31T08:50:25;4.53;;;2.50;;
27706;SDS011;36332;51.384;0.040;2023-07-31T08:52:53;5.57;;;3.33;;
27706;SDS011;36332;51.384;0.040;2023-07-31T08:55:24;5.60;;;2.70;;
27706;SDS011;36332;51.384;0.040;2023-07-31T08:57:52;4.38;;;3.08;;
27706;SDS011;36332;51.384;0.040;2023-07-31T09:00:20;2.30;;;2.05;;
27706;SDS011;36332;51.384;0.040;2023-07-31T09:03:03;3.83;;;2.67;;
27706;SDS011;36332;51.384;0.040;2023-07-31T09:05:35;3.55;;;2.08;;
27706;SDS011;36332;51.384;0.040;2023-07-31T09:08:06;3.65;;;2.50;;
27706;SDS011;36332;51.384;0.040;2023-07-31T09:10:39;5.68;;;2.50;;
27706;SDS011;36332;51.384;0.040;2023-07-31T09:13:13;3.92;;;2.30;;
27706;SDS011;36332;51.384;0.040;2023-07-31T09:15:43;3.42;;;2.13;;
27706;SDS011;36332;51.384;0.040;2023-07-31T09:18:12;3.30;;;1.80;;
27706;SDS011;36332;51.384;0.040;2023-07-31T09:20:45;3.90;;;1.88;;
27706;SDS011;36332;51.384;0.040;2023-07-31T09:23:13;2.08;;;1.80;;
27706;SDS011;36332;51.384;0.040;2023-07-31T09:25:43;2.75;;;1.80;;
27706;SDS011;36332;51.384;0.040;2023-07-31T09:28:11;2.33;;;1.42;;
27706;SDS011;36332;51.384;0.040;2023-07-31T09:30:46;3.03;;;1.63;;
27706;SDS011;36332;51.384;0.040;2023-07-31T09:33:19;2.65;;;1.88;;
27706;SDS011;36332;51.384;0.040;2023-07-31T09:35:47;2.17;;;1.58;;
27706;SDS011;36332;51.384;0.040;2023-07-31T09:38:17;1.60;;;1.42;;
27706;SDS011;36332;51.384;0.040;2023-07-31T09:40:49;4.47;;;1.65;;
27706;SDS011;36332;51.384;0.040;2023-07-31T09:43:18;4.22;;;1.85;;
27706;SDS011;36332;51.384;0.040;2023-07-31T09:45:47;4.53;;;1.50;;
27706;SDS011;36332;51.384;0.040;2023-07-31T09:48:16;1.60;;;1.50;;
27706;SDS011;36332;51.384;0.040;2023-07-31T09:50:45;2.33;;;1.67;;
27706;SDS011;36332;51.384;0.040;2023-07-31T09:53:15;6.47;;;2.05;;
27706;SDS011;36332;51.384;0.040;2023-07-31T09:55:46;2.25;;;1.85;;
27706;SDS011;36332;51.384;0.040;2023-07-31T09:58:13;4.80;;;1.50;;
27706;SDS011;36332;51.384;0.040;2023-07-31T10:00:42;3.05;;;1.77;;
27706;SDS011;36332;51.384;0.040;2023-07-31T10:03:10;3.17;;;1.60;;
27706;SDS011;36332;51.384;0.040;2023-07-31T10:08:16;1.80;;;1.48;;
27706;SDS011;36332;51.384;0.040;2023-07-31T10:10:47;2.17;;;1.38;;
27706;SDS011;36332;51.384;0.040;2023-07-31T10:13:15;5.07;;;1.80;;
27706;SDS011;36332;51.384;0.040;2023-07-31T10:15:44;4.22;;;1.67;;
27706;SDS011;36332;51.384;0.040;2023-07-31T10:18:13;1.90;;;1.65;;
27706;SDS011;36332;51.384;0.040;2023-07-31T10:20:43;6.60;;;1.95;;
27706;SDS011;36332;51.384;0.040;2023-07-31T10:23:12;4.75;;;1.67;;
27706;SDS011;36332;51.384;0.040;2023-07-31T10:25:40;5.95;;;1.55;;
27706;SDS011;36332;51.384;0.040;2023-07-31T10:28:08;4.70;;;1.52;;
27706;SDS011;36332;51.384;0.040;2023-07-31T10:30:38;3.97;;;1.77;;
27706;SDS011;36332;51.384;0.040;2023-07-31T10:33:06;2.35;;;1.35;;
27706;SDS011;36332;51.384;0.040;2023-07-31T10:35:35;5.38;;;1.83;;
27706;SDS011;36332;51.384;0.040;2023-07-31T10:38:12;3.58;;;1.83;;
27706;SDS011;36332;51.384;0.040;2023-07-31T10:40:40;4.05;;;2.00;;
27706;SDS011;36332;51.384;0.040;2023-07-31T10:43:08;2.53;;;1.58;;
27706;SDS011;36332;51.384;0.040;2023-07-31T10:45:39;3.72;;;2.00;;
27706;SDS011;36332;51.384;0.040;2023-07-31T10:48:13;3.08;;;1.73;;
27706;SDS011;36332;51.384;0.040;2023-07-31T10:50:51;3.05;;;1.92;;
27706;SDS011;36332;51.384;0.040;2023-07-31T10:53:23;3.42;;;2.00;;
27706;SDS011;36332;51.384;0.040;2023-07-31T10:55:52;4.85;;;2.00;;
27706;SDS011;36332;51.384;0.040;2023-07-31T10:58:21;4.25;;;2.10;;
27706;SDS011;36332;51.384;0.040;2023-07-31T11:00:49;4.05;;;1.80;;
27706;SDS011;36332;51.384;0.040;2023-07-31T11:03:24;5.57;;;2.13;;
27706;SDS011;36332;51.384;0.040;2023-07-31T11:08:31;3.22;;;1.90;;
27706;SDS011;36332;51.384;0.040;2023-07-31T11:13:31;2.75;;;1.77;;
27706;SDS011;36332;51.384;0.040;2023-07-31T11:16:13;3.65;;;2.00;;
27706;SDS011;36332;51.384;0.040;2023-07-31T11:18:42;4.80;;;2.15;;
27706;SDS011;36332;51.384;0.040;2023-07-31T11:21:14;3.72;;;1.60;;
27706;SDS011;36332;51.384;0.040;2023-07-31T11:23:47;4.63;;;2.42;;
27706;SDS011;36332;51.384;0.040;2023-07-31T11:26:16;2.42;;;1.70;;
27706;SDS011;36332;51.384;0.040;2023-07-31T11:28:46;3.72;;;1.85;;
27706;SDS011;36332;51.384;0.040;2023-07-31T11:31:14;5.50;;;2.20;;
27706;SDS011;36332;51.384;0.040;2023-07-31T11:33:43;4.20;;;1.73;;
27706;SDS011;36332;51.384;0.040;2023-07-31T11:36:15;3.35;;;1.58;;
27706;SDS011;36332;51.384;0.040;2023-07-31T11:38:44;4.30;;;1.75;;
27706;SDS011;36332;51.384;0.040;2023-07-31T11:41:13;3.75;;;1.80;;
27706;SDS011;36332;51.384;0.040;2023-07-31T11:43:43;2.92;;;1.50;;
27706;SDS011;36332;51.384;0.040;2023-07-31T11:46:11;5.43;;;1.77;;
27706;SDS011;36332;51.384;0.040;2023-07-31T11:48:41;3.90;;;1.85;;
27706;SDS011;36332;51.384;0.040;2023-07-31T11:51:10;6.40;;;2.42;;
27706;SDS011;36332;51.384;0.040;2023-07-31T11:53:43;4.43;;;1.80;;
27706;SDS011;36332;51.384;0.040;2023-07-31T11:56:16;4.55;;;2.47;;
27706;SDS011;36332;51.384;0.040;2023-07-31T11:58:46;4.88;;;1.88;;
27706;SDS011;36332;51.384;0.040;2023-07-31T12:01:15;6.47;;;2.30;;
27706;SDS011;36332;51.384;0.040;2023-07-31T12:03:46;5.80;;;2.22;;
27706;SDS011;36332;51.384;0.040;2023-07-31T12:06:14;3.00;;;1.90;;
27706;SDS011;36332;51.384;0.040;2023-07-31T12:08:42;5.55;;;2.20;;
27706;SDS011;36332;51.384;0.040;2023-07-31T12:11:10;7.35;;;2.83;;
27706;SDS011;36332;51.384;0.040;2023-07-31T12:13:37;6.03;;;2.08;;
27706;SDS011;36332;51.384;0.040;2023-07-31T12:16:05;3.08;;;1.88;;
27706;SDS011;36332;51.384;0.040;2023-07-31T12:18:34;5.68;;;2.60;;
27706;SDS011;36332;51.384;0.040;2023-07-31T12:21:04;6.90;;;2.80;;
27706;SDS011;36332;51.384;0.040;2023-07-31T12:23:33;5.72;;;2.58;;
27706;SDS011;36332;51.384;0.040;2023-07-31T12:28:35;4.10;;;2.38;;
27706;SDS011;36332;51.384;0.040;2023-07-31T12:31:09;6.47;;;1.85;;
27706;SDS011;36332;51.384;0.040;2023-07-31T12:33:38;5.43;;;2.13;;
27706;SDS011;36332;51.384;0.040;2023-07-31T12:36:10;7.45;;;2.47;;
27706;SDS011;36332;51.384;0.040;2023-07-31T12:38:42;4.05;;;2.33;;
27706;SDS011;36332;51.384;0.040;2023-07-31T12:41:10;3.38;;;1.65;;
27706;SDS011;36332;51.384;0.040;2023-07-31T12:43:39;6.97;;;2.78;;
27706;SDS011;36332;51.384;0.040;2023-07-31T12:46:08;4.05;;;2.22;;
27706;SDS011;36332;51.384;0.040;2023-07-31T12:48:37;5.35;;;2.28;;
27706;SDS011;36332;51.384;0.040;2023-07-31T12:51:06;5.00;;;1.83;;
27706;SDS011;36332;51.384;0.040;2023-07-31T12:53:35;5.22;;;2.25;;
27706;SDS011;36332;51.384;0.040;2023-07-31T12:56:03;6.15;;;2.35;;
27706;SDS011;36332;51.384;0.040;2023-07-31T12:58:31;4.60;;;2.22;;
27706;SDS011;36332;51.384;0.040;2023-07-31T13:00:59;5.90;;;2.47;;
27706;SDS011;36332;51.384;0.040;2023-07-31T13:03:27;4.93;;;2.42;;
27706;SDS011;36332;51.384;0.040;2023-07-31T13:05:55;6.25;;;1.92;;
27706;SDS011;36332;51.384;0.040;2023-07-31T13:08:23;4.88;;;2.50;;
27706;SDS011;36332;51.384;0.040;2023-07-31T13:10:51;3.53;;;2.03;;
27706;SDS011;36332;51.384;0.040;2023-07-31T13:13:20;11.48;;;3.03;;
27706;SDS011;36332;51.384;0.040;2023-07-31T13:15:48;4.45;;;2.55;;
27706;SDS011;36332;51.384;0.040;2023-07-31T13:18:16;7.32;;;2.88;;
27706;SDS011;36332;51.384;0.040;2023-07-31T13:20:44;7.97;;;3.00;;
27706;SDS011;36332;51.384;0.040;2023-07-31T13:23:13;9.07;;;2.70;;
27706;SDS011;36332;51.384;0.040;2023-07-31T13:25:41;5.30;;;2.70;;
27706;SDS011;36332;51.384;0.040;2023-07-31T13:28:10;8.27;;;3.30;;
27706;SDS011;36332;51.384;0.040;2023-07-31T13:30:38;10.20;;;3.35;;
27706;SDS011;36332;51.384;0.040;2023-07-31T13:33:06;10.93;;;4.25;;
27706;SDS011;36332;51.384;0.040;2023-07-31T13:35:51;9.02;;;4.20;;
27706;SDS011;36332;51.384;0.040;2023-07-31T13:38:19;11.20;;;3.55;;
27706;SDS011;36332;51.384;0.040;2023-07-31T13:40:48;12.43;;;3.67;;
27706;SDS011;36332;51.384;0.040;2023-07-31T13:43:16;9.60;;;3.88;;
27706;SDS011;36332;51.384;0.040;2023-07-31T13:45:44;8.82;;;3.72;;
27706;SDS011;36332;51.384;0.040;2023-07-31T13:48:12;7.63;;;3.67;;
27706;SDS011;36332;51.384;0.040;2023-07-31T13:50:39;15.40;;;4.18;;
27706;SDS011;36332;51.384;0.040;2023-07-31T13:53:07;14.02;;;4.88;;
27706;SDS011;36332;51.384;0.040;2023-07-31T13:55:35;11.25;;;4.20;;
27706;SDS011;36332;51.384;0.040;2023-07-31T13:58:03;15.02;;;5.18;;
27706;SDS011;36332;51.384;0.040;2023-07-31T14:00:31;11.00;;;4.13;;
27706;SDS011;36332;51.384;0.040;2023-07-31T14:02:59;12.73;;;5.43;;
27706;SDS011;36332;51.384;0.040;2023-07-31T14:05:27;8.38;;;3.92;;
27706;SDS011;36332;51.384;0.040;2023-07-31T14:07:55;10.73;;;5.10;;
27706;SDS011;36332;51.384;0.040;2023-07-31T14:10:23;13.90;;;4.50;;
27706;SDS011;36332;51.384;0.040;2023-07-31T14:12:51;15.38;;;5.65;;
27706;SDS011;36332;51.384;0.040;2023-07-31T14:15:19;16.17;;;5.18;;
27706;SDS011;36332;51.384;0.040;2023-07-31T14:17:47;17.77;;;5.25;;
27706;SDS011;36332;51.384;0.040;2023-07-31T14:20:15;11.35;;;4.68;;
27706;SDS011;36332;51.384;0.040;2023-07-31T14:22:44;13.75;;;4.82;;
27706;SDS011;36332;51.384;0.040;2023-07-31T14:25:11;11.98;;;5.32;;
27706;SDS011;36332;51.384;0.040;2023-07-31T14:27:40;10.43;;;5.53;;
27706;SDS011;36332;51.384;0.040;2023-07-31T14:30:08;12.95;;;5.55;;
27706;SDS011;36332;51.384;0.040;2023-07-31T14:32:36;9.18;;;4.88;;
27706;SDS011;36332;51.384;0.040;2023-07-31T14:35:04;11.32;;;4.85;;
27706;SDS011;36332;51.384;0.040;2023-07-31T14:37:36;13.70;;;4.90;;
27706;SDS011;36332;51.384;0.040;2023-07-31T14:40:09;13.10;;;4.20;;
27706;SDS011;36332;51.384;0.040;2023-07-31T14:42:39;14.95;;;5.55;;
27706;SDS011;36332;51.384;0.040;2023-07-31T14:45:08;12.50;;;4.63;;
27706;SDS011;36332;51.384;0.040;2023-07-31T14:47:37;12.95;;;5.60;;
27706;SDS011;36332;51.384;0.040;2023-07-31T14:50:05;12.07;;;4.43;;
27706;SDS011;36332;51.384;0.040;2023-07-31T14:52:33;15.02;;;5.68;;
27706;SDS011;36332;51.384;0.040;2023-07-31T14:55:01;12.48;;;4.63;;
27706;SDS011;36332;51.384;0.040;2023-07-31T14:57:29;12.40;;;4.32;;
27706;SDS011;36332;51.384;0.040;2023-07-31T14:59:56;15.10;;;5.25;;
27706;SDS011;36332;51.384;0.040;2023-07-31T15:02:26;10.52;;;4.15;;
27706;SDS011;36332;51.384;0.040;2023-07-31T15:04:54;12.30;;;4.40;;
27706;SDS011;36332;51.384;0.040;2023-07-31T15:07:22;13.48;;;4.35;;
27706;SDS011;36332;51.384;0.040;2023-07-31T15:09:50;13.52;;;4.80;;
27706;SDS011;36332;51.384;0.040;2023-07-31T15:12:18;11.15;;;5.68;;
27706;SDS011;36332;51.384;0.040;2023-07-31T15:14:48;7.97;;;3.97;;